createdAt,value
2019-06-26T00:00:28.631Z,59.11
2019-06-26T00:02:57.867Z,58.58
2019-06-26T00:05:26.625Z,58.49
2019-06-26T00:07:55.700Z,58.57
2019-06-26T00:10:26.836Z,58.17
2019-06-26T00:12:55.529Z,59.11
2019-06-26T00:15:24.518Z,58.45
2019-06-26T00:17:53.505Z,58.23
2019-06-26T00:20:23.420Z,57.73
2019-06-26T00:22:52.418Z,58.22
2019-06-26T00:25:21.412Z,57.76
2019-06-26T00:27:50.079Z,57.90
2019-06-26T00:30:20.015Z,58.21
2019-06-26T00:32:48.988Z,57.95
2019-06-26T00:35:17.755Z,59.42
2019-06-26T00:37:46.972Z,60.00
2019-06-26T00:40:15.847Z,59.44
2019-06-26T00:42:44.523Z,59.38
2019-06-26T00:45:14.248Z,59.38
2019-06-26T00:47:42.976Z,59.31
2019-06-26T00:50:12.417Z,59.56
2019-06-26T00:52:41.224Z,59.49
2019-06-26T00:55:10.238Z,60.11
2019-06-26T00:57:39.341Z,59.62
2019-06-26T01:00:10.387Z,59.91
2019-06-26T01:02:39.581Z,59.80
2019-06-26T01:05:10.094Z,60.59
2019-06-26T01:07:39.374Z,60.07
2019-06-26T01:10:09.417Z,59.78
2019-06-26T01:12:38.420Z,59.62
2019-06-26T01:15:08.844Z,60.41
2019-06-26T01:17:37.537Z,60.59
2019-06-26T01:20:07.338Z,61.13
2019-06-26T01:22:36.029Z,61.19
2019-06-26T01:25:06.436Z,61.21
2019-06-26T01:27:35.779Z,61.16
2019-06-26T01:30:05.076Z,61.38
2019-06-26T01:32:34.039Z,61.17
2019-06-26T01:35:03.265Z,63.48
2019-06-26T01:37:32.236Z,62.82
2019-06-26T01:40:00.903Z,61.85
2019-06-26T01:42:29.585Z,62.24
2019-06-26T01:44:58.908Z,62.64
2019-06-26T01:47:27.902Z,61.95
2019-06-26T01:49:57.195Z,61.90
2019-06-26T01:52:25.871Z,62.25
2019-06-26T01:54:54.878Z,61.77
2019-06-26T01:57:24.178Z,61.62
2019-06-26T01:59:52.960Z,61.03
2019-06-26T02:02:21.648Z,61.54
2019-06-26T02:04:50.420Z,61.65
2019-06-26T02:07:19.123Z,61.71
2019-06-26T02:09:48.118Z,61.82
2019-06-26T02:12:17.052Z,61.50
2019-06-26T02:14:45.723Z,61.79
2019-06-26T02:17:14.437Z,62.41
2019-06-26T02:19:43.091Z,62.33
2019-06-26T02:22:12.159Z,61.67
2019-06-26T02:24:40.975Z,61.85
2019-06-26T02:27:09.678Z,63.19
2019-06-26T02:29:41.018Z,63.03
2019-06-26T02:32:09.737Z,63.15
2019-06-26T02:34:39.098Z,63.18
2019-06-26T02:37:07.791Z,63.04
2019-06-26T02:39:36.746Z,62.96
2019-06-26T02:42:05.836Z,62.87
2019-06-26T02:44:52.053Z,62.92
2019-06-26T02:47:18.704Z,63.17
2019-06-26T02:49:36.589Z,63.05
2019-06-26T02:52:05.346Z,62.92
2019-06-26T02:54:34.281Z,62.84
2019-06-26T02:57:05.574Z,62.71
2019-06-26T02:59:34.962Z,62.77
2019-06-26T03:02:03.993Z,62.75
2019-06-26T03:04:32.670Z,62.79
2019-06-26T03:07:02.937Z,62.87
2019-06-26T03:09:32.233Z,63.07
2019-06-26T03:12:01.234Z,63.11
2019-06-26T03:14:30.527Z,63.14
2019-06-26T03:16:59.315Z,63.32
2019-06-26T03:19:30.655Z,63.37
2019-06-26T03:21:59.346Z,63.57
2019-06-26T03:24:29.363Z,63.71
2019-06-26T03:26:58.049Z,63.66
2019-06-26T03:29:26.811Z,63.70
2019-06-26T03:31:55.523Z,63.79
2019-06-26T03:34:24.538Z,63.81
2019-06-26T03:36:53.386Z,63.57
2019-06-26T03:39:22.070Z,63.70
2019-06-26T03:41:50.764Z,63.52
2019-06-26T03:44:19.502Z,63.65
2019-06-26T03:46:48.183Z,63.34
2019-06-26T03:49:17.544Z,63.04
2019-06-26T03:51:46.222Z,62.80
2019-06-26T03:54:14.896Z,63.06
2019-06-26T03:56:43.896Z,62.94
2019-06-26T03:59:12.581Z,63.25
2019-06-26T04:01:42.437Z,63.23
2019-06-26T04:04:11.500Z,63.02
2019-06-26T04:06:40.426Z,63.21
2019-06-26T04:09:09.599Z,63.26
2019-06-26T04:11:38.262Z,63.56
2019-06-26T04:14:06.952Z,63.48
2019-06-26T04:16:35.692Z,63.80
2019-06-26T04:19:04.464Z,63.37
2019-06-26T04:21:33.153Z,63.56
2019-06-26T04:24:02.015Z,63.65
2019-06-26T04:26:32.141Z,63.53
2019-06-26T04:29:00.888Z,63.46
2019-06-26T04:31:30.147Z,63.80
2019-06-26T04:33:59.106Z,63.69
2019-06-26T04:36:28.080Z,63.85
2019-06-26T04:38:56.773Z,64.13
2019-06-26T04:41:25.462Z,64.35
2019-06-26T04:43:54.460Z,64.46
2019-06-26T04:46:23.198Z,64.17
2019-06-26T04:48:51.898Z,64.50
2019-06-26T04:51:20.570Z,64.71
2019-06-26T04:53:49.256Z,65.17
2019-06-26T04:56:18.234Z,64.81
2019-06-26T04:58:46.921Z,64.64
2019-06-26T05:01:15.915Z,64.37
2019-06-26T05:03:44.846Z,64.22
2019-06-26T05:06:13.892Z,64.35
2019-06-26T05:08:42.844Z,64.49
2019-06-26T05:11:12.812Z,64.53
2019-06-26T05:13:41.793Z,64.68
2019-06-26T05:16:15.831Z,64.87
2019-06-26T05:18:41.226Z,65.02
2019-06-26T05:21:11.483Z,65.26
2019-06-26T05:23:40.530Z,65.46
2019-06-26T05:26:09.184Z,65.30
2019-06-26T05:28:38.977Z,65.66
2019-06-26T05:31:07.684Z,65.56
2019-06-26T05:33:36.386Z,65.81
2019-06-26T05:36:05.467Z,65.88
2019-06-26T05:38:34.179Z,65.66
2019-06-26T05:41:03.171Z,65.39
2019-06-26T05:43:31.933Z,65.59
2019-06-26T05:46:00.859Z,65.28
2019-06-26T05:48:29.558Z,65.46
2019-06-26T05:50:58.245Z,65.81
2019-06-26T05:53:27.002Z,66.25
2019-06-26T05:55:55.937Z,66.49
2019-06-26T05:58:24.961Z,66.15
2019-06-26T06:00:53.648Z,66.94
2019-06-26T06:03:25.158Z,67.26
2019-06-26T06:05:53.893Z,66.73
2019-06-26T06:08:22.845Z,66.77
2019-06-26T06:10:55.881Z,67.13
2019-06-26T06:13:24.732Z,67.01
2019-06-26T06:15:53.450Z,66.56
2019-06-26T06:18:22.142Z,66.96
2019-06-26T06:20:51.105Z,66.89
2019-06-26T06:23:19.785Z,67.25
2019-06-26T06:25:48.899Z,67.61
2019-06-26T06:28:19.711Z,66.73
2019-06-26T06:30:48.644Z,67.64
2019-06-26T06:33:17.331Z,67.56
2019-06-26T06:35:46.015Z,67.34
2019-06-26T06:38:14.726Z,66.63
2019-06-26T06:40:43.729Z,66.64
2019-06-26T06:43:12.813Z,65.43
2019-06-26T06:45:41.635Z,65.13
2019-06-26T06:48:10.657Z,64.78
2019-06-26T06:50:39.337Z,64.12
2019-06-26T06:53:08.037Z,64.16
2019-06-26T06:55:36.743Z,64.32
2019-06-26T06:58:10.024Z,63.05
2019-06-26T07:00:39.012Z,63.08
2019-06-26T07:03:08.010Z,62.90
2019-06-26T07:05:36.970Z,63.04
2019-06-26T07:08:05.624Z,62.76
2019-06-26T07:10:34.309Z,63.03
2019-06-26T07:13:02.977Z,61.31
2019-06-26T07:15:36.216Z,62.50
2019-06-26T07:18:04.967Z,61.96
2019-06-26T07:20:33.718Z,61.69
2019-06-26T07:23:02.381Z,61.11
2019-06-26T07:25:31.374Z,60.64
2019-06-26T07:28:02.009Z,60.52
2019-06-26T07:30:31.205Z,61.32
2019-06-26T07:32:59.891Z,61.81
2019-06-26T07:35:28.617Z,61.61
2019-06-26T07:38:00.057Z,61.66
2019-06-26T07:40:28.308Z,62.31
2019-06-26T07:42:56.970Z,60.63
2019-06-26T07:45:25.721Z,60.28
2019-06-26T07:47:54.974Z,60.25
2019-06-26T07:50:23.722Z,59.30
2019-06-26T07:52:52.889Z,60.53
2019-06-26T07:55:21.542Z,59.99
2019-06-26T07:57:50.537Z,59.99
2019-06-26T08:00:20.469Z,60.43
2019-06-26T08:02:49.268Z,59.84
2019-06-26T08:05:18.458Z,60.37
2019-06-26T08:07:47.138Z,60.38
2019-06-26T08:10:16.305Z,60.62
2019-06-26T08:12:45.307Z,61.44
2019-06-26T08:15:15.526Z,60.80
2019-06-26T08:17:59.328Z,60.44
2019-06-26T08:20:15.878Z,61.26
2019-06-26T08:22:44.624Z,61.23
2019-06-26T08:25:13.854Z,61.39
2019-06-26T08:27:42.844Z,60.63
2019-06-26T08:30:12.468Z,61.19
2019-06-26T08:32:41.163Z,61.56
2019-06-26T08:35:10.953Z,61.25
2019-06-26T08:37:39.617Z,61.75
2019-06-26T08:40:08.682Z,61.81
2019-06-26T08:42:37.364Z,61.65
2019-06-26T08:45:06.625Z,63.04
2019-06-26T08:47:35.732Z,64.16
2019-06-26T08:50:04.765Z,61.76
2019-06-26T08:52:33.417Z,61.63
2019-06-26T08:55:02.380Z,59.42
2019-06-26T08:57:31.365Z,61.21
2019-06-26T09:00:00.319Z,60.44
2019-06-26T09:02:29.066Z,59.96
2019-06-26T09:04:58.045Z,60.21
2019-06-26T09:07:27.093Z,61.15
2019-06-26T09:09:55.808Z,60.67
2019-06-26T09:12:24.879Z,60.87
2019-06-26T09:14:53.609Z,60.08
2019-06-26T09:17:22.599Z,60.41
2019-06-26T09:19:51.700Z,60.06
2019-06-26T09:22:20.361Z,59.90
2019-06-26T09:24:49.623Z,59.76
2019-06-26T09:27:18.386Z,60.57
2019-06-26T09:29:47.294Z,60.29
2019-06-26T09:32:16.562Z,60.61
2019-06-26T09:34:45.261Z,58.90
2019-06-26T09:37:16.045Z,57.65
2019-06-26T09:39:45.068Z,58.51
2019-06-26T09:42:14.163Z,58.47
2019-06-26T09:44:43.459Z,57.55
2019-06-26T09:47:15.592Z,57.69
2019-06-26T09:49:43.503Z,57.36
2019-06-26T09:52:12.592Z,58.24
2019-06-26T09:54:41.583Z,58.28
2019-06-26T09:57:10.329Z,57.94
2019-06-26T09:59:41.502Z,57.11
2019-06-26T10:02:10.515Z,57.43
2019-06-26T10:04:39.250Z,57.84
2019-06-26T10:07:08.018Z,56.36
2019-06-26T10:09:37.326Z,56.11
2019-06-26T10:12:06.033Z,56.60
2019-06-26T10:14:47.419Z,55.88
2019-06-26T10:17:06.530Z,54.98
2019-06-26T10:19:35.197Z,55.93
2019-06-26T10:22:03.961Z,55.89
2019-06-26T10:24:32.623Z,55.93
2019-06-26T10:27:01.683Z,54.15
2019-06-26T10:29:30.644Z,53.77
2019-06-26T10:31:59.323Z,53.77
2019-06-26T10:34:28.340Z,52.73
2019-06-26T10:36:57.033Z,51.59
2019-06-26T10:39:25.732Z,52.68
2019-06-26T10:41:55.196Z,52.05
2019-06-26T10:44:24.091Z,52.78
2019-06-26T10:46:53.065Z,51.12
2019-06-26T10:49:26.983Z,51.16
2019-06-26T10:51:52.515Z,49.50
2019-06-26T10:54:21.796Z,49.91
2019-06-26T10:56:50.802Z,49.68
2019-06-26T10:59:19.799Z,50.22
2019-06-26T11:01:48.515Z,50.39
2019-06-26T11:04:17.497Z,49.63
2019-06-26T11:06:46.205Z,48.27
2019-06-26T11:09:14.864Z,46.57
2019-06-26T11:11:43.572Z,45.00
2019-06-26T11:14:12.215Z,45.93
2019-06-26T11:16:41.213Z,45.14
2019-06-26T11:19:10.136Z,47.22
2019-06-26T11:21:38.811Z,45.80
2019-06-26T11:24:07.773Z,44.64
2019-06-26T11:26:36.761Z,43.74
2019-06-26T11:29:05.507Z,43.58
2019-06-26T11:31:34.628Z,39.73
2019-06-26T11:34:03.588Z,41.18
2019-06-26T11:36:32.258Z,40.44
2019-06-26T11:39:02.112Z,39.64
2019-06-26T11:41:30.775Z,40.54
2019-06-26T11:43:59.473Z,39.96
2019-06-26T11:46:29.503Z,38.84
2019-06-26T11:48:58.181Z,39.72
2019-06-26T11:51:26.851Z,41.42
2019-06-26T11:53:58.886Z,39.37
2019-06-26T11:56:26.519Z,39.16
2019-06-26T11:58:55.516Z,40.79
2019-06-26T12:01:24.302Z,38.27
2019-06-26T12:03:52.968Z,38.95
2019-06-26T12:06:21.732Z,39.35
2019-06-26T12:08:50.403Z,40.60
2019-06-26T12:11:23.418Z,39.53
2019-06-26T12:13:52.407Z,39.45
2019-06-26T12:16:21.073Z,39.57
2019-06-26T12:18:51.026Z,38.57
2019-06-26T12:21:20.001Z,38.78
2019-06-26T12:23:48.720Z,39.71
2019-06-26T12:26:20.114Z,39.46
2019-06-26T12:28:51.410Z,38.50
2019-06-26T12:31:22.449Z,37.48
2019-06-26T12:33:51.113Z,37.41
2019-06-26T12:36:20.115Z,37.68
2019-06-26T12:38:49.124Z,36.98
2019-06-26T12:41:17.885Z,38.82
2019-06-26T12:43:46.806Z,38.21
2019-06-26T12:46:18.121Z,38.01
2019-06-26T12:48:45.941Z,38.11
2019-06-26T12:51:14.650Z,36.39
2019-06-26T12:53:43.638Z,36.99
2019-06-26T12:56:12.310Z,37.24
2019-06-26T12:58:41.002Z,36.39
2019-06-26T13:01:09.952Z,37.12
2019-06-26T13:03:38.958Z,37.21
2019-06-26T13:06:07.635Z,37.24
2019-06-26T13:08:38.862Z,37.50
2019-06-26T13:11:07.777Z,36.37
2019-06-26T13:13:36.759Z,38.11
2019-06-26T13:16:05.482Z,37.27
2019-06-26T13:18:34.438Z,36.72
2019-06-26T13:21:05.242Z,36.27
2019-06-26T13:23:33.545Z,37.04
2019-06-26T13:26:02.281Z,38.00
2019-06-26T13:28:31.231Z,38.42
2019-06-26T13:31:00.552Z,38.62
2019-06-26T13:33:29.582Z,39.38
2019-06-26T13:35:58.209Z,39.94
2019-06-26T13:38:27.370Z,40.39
2019-06-26T13:40:56.042Z,40.03
2019-06-26T13:43:25.059Z,39.85
2019-06-26T13:45:53.721Z,39.48
2019-06-26T13:48:22.478Z,39.62
2019-06-26T13:50:51.216Z,39.46
2019-06-26T13:53:19.964Z,39.77
2019-06-26T13:55:48.913Z,39.84
2019-06-26T13:58:17.908Z,39.39
2019-06-26T14:00:46.821Z,40.37
2019-06-26T14:03:15.866Z,40.33
2019-06-26T14:05:44.606Z,39.73
2019-06-26T14:08:13.606Z,39.22
2019-06-26T14:10:42.294Z,39.37
2019-06-26T14:13:11.258Z,39.03
2019-06-26T14:15:39.948Z,39.65
2019-06-26T14:18:08.831Z,39.18
2019-06-26T14:20:37.808Z,38.73
2019-06-26T14:23:06.487Z,39.42
2019-06-26T14:25:35.237Z,41.28
2019-06-26T14:28:06.382Z,40.11
2019-06-26T14:30:34.221Z,39.94
2019-06-26T14:33:02.864Z,39.42
2019-06-26T14:35:31.822Z,40.09
2019-06-26T14:38:00.973Z,41.29
2019-06-26T14:40:29.727Z,42.63
2019-06-26T14:43:00.569Z,41.88
2019-06-26T14:45:33.774Z,41.88
2019-06-26T14:48:05.293Z,42.26
2019-06-26T14:50:34.233Z,42.35
2019-06-26T14:53:03.031Z,42.99
2019-06-26T14:55:33.830Z,43.45
2019-06-26T14:58:02.497Z,40.77
2019-06-26T15:00:31.212Z,41.85
2019-06-26T15:02:59.970Z,41.89
2019-06-26T15:05:32.388Z,41.77
2019-06-26T15:08:01.101Z,41.99
2019-06-26T15:10:31.997Z,42.75
2019-06-26T15:13:00.765Z,42.87
2019-06-26T15:15:31.601Z,41.85
2019-06-26T15:18:02.151Z,43.20
2019-06-26T15:20:30.935Z,41.85
2019-06-26T15:23:00.246Z,42.41
2019-06-26T15:25:28.996Z,42.29
2019-06-26T15:27:58.044Z,41.90
2019-06-26T15:30:29.852Z,41.87
2019-06-26T15:32:58.926Z,42.50
2019-06-26T15:35:27.978Z,42.13
2019-06-26T15:37:56.672Z,42.32
2019-06-26T15:40:25.360Z,42.52
2019-06-26T15:42:54.219Z,43.00
2019-06-26T15:45:24.522Z,42.72
2019-06-26T15:47:53.222Z,44.35
2019-06-26T15:50:21.988Z,44.99
2019-06-26T15:52:51.295Z,46.19
2019-06-26T15:55:21.008Z,46.88
2019-06-26T15:57:50.444Z,46.84
2019-06-26T16:00:19.493Z,47.32
2019-06-26T16:02:48.243Z,46.78
2019-06-26T16:05:17.418Z,46.44
2019-06-26T16:07:46.097Z,46.02
2019-06-26T16:10:15.779Z,47.23
2019-06-26T16:12:44.788Z,46.48
2019-06-26T16:15:13.852Z,45.96
2019-06-26T16:17:48.404Z,46.89
2019-06-26T16:20:17.336Z,47.08
2019-06-26T16:22:46.093Z,46.88
2019-06-26T16:25:15.778Z,47.58
2019-06-26T16:27:44.795Z,47.99
2019-06-26T16:30:13.815Z,47.95
2019-06-26T16:32:42.497Z,48.64
2019-06-26T16:35:12.517Z,48.82
2019-06-26T16:37:41.197Z,48.31
2019-06-26T16:40:10.030Z,48.87
2019-06-26T16:42:38.738Z,49.12
2019-06-26T16:45:08.215Z,49.75
2019-06-26T16:47:37.327Z,50.02
2019-06-26T16:50:07.332Z,49.79
2019-06-26T16:52:48.718Z,49.53
2019-06-26T16:55:07.221Z,50.21
2019-06-26T16:57:35.900Z,49.94
2019-06-26T17:00:09.946Z,50.18
2019-06-26T17:02:37.093Z,50.17
2019-06-26T17:05:06.301Z,50.46
2019-06-26T17:07:35.048Z,50.02
2019-06-26T17:10:04.187Z,49.47
2019-06-26T17:12:33.217Z,49.91
2019-06-26T17:15:04.218Z,49.90
2019-06-26T17:17:32.744Z,50.36
2019-06-26T17:20:01.698Z,50.13
2019-06-26T17:22:30.704Z,50.06
2019-06-26T17:24:59.412Z,50.18
2019-06-26T17:27:28.349Z,50.00
2019-06-26T17:29:57.447Z,50.32
2019-06-26T17:32:26.126Z,49.71
2019-06-26T17:34:54.830Z,50.00
2019-06-26T17:37:23.598Z,51.26
2019-06-26T17:39:52.575Z,51.73
2019-06-26T17:42:21.322Z,52.45
2019-06-26T17:44:50.295Z,53.44
2019-06-26T17:47:19.281Z,54.30
2019-06-26T17:49:48.169Z,54.46
2019-06-26T17:52:17.595Z,54.76
2019-06-26T17:54:46.857Z,55.67
2019-06-26T17:57:15.543Z,55.57
2019-06-26T17:59:44.743Z,55.87
2019-06-26T18:02:13.478Z,56.38
2019-06-26T18:04:42.155Z,57.01
2019-06-26T18:07:10.864Z,56.06
2019-06-26T18:09:40.158Z,56.23
2019-06-26T18:12:10.231Z,56.22
2019-06-26T18:14:42.943Z,56.03
2019-06-26T18:17:21.753Z,56.01
2019-06-26T18:19:40.142Z,56.03
2019-06-26T18:22:09.069Z,55.77
2019-06-26T18:24:37.736Z,55.80
2019-06-26T18:27:06.745Z,55.92
2019-06-26T18:29:35.479Z,55.34
2019-06-26T18:32:04.241Z,55.59
2019-06-26T18:34:33.522Z,55.18
2019-06-26T18:37:02.457Z,55.44
2019-06-26T18:39:31.396Z,55.31
2019-06-26T18:42:00.160Z,54.86
2019-06-26T18:44:28.965Z,54.85
2019-06-26T18:46:58.813Z,54.84
2019-06-26T18:49:27.464Z,55.29
2019-06-26T18:51:56.162Z,55.02
2019-06-26T18:54:24.832Z,54.97
2019-06-26T18:56:53.758Z,55.15
2019-06-26T18:59:22.425Z,54.97
2019-06-26T19:01:51.112Z,55.34
2019-06-26T19:04:20.031Z,55.44
2019-06-26T19:06:48.721Z,55.44
2019-06-26T19:09:20.846Z,55.46
2019-06-26T19:11:49.836Z,55.53
2019-06-26T19:14:18.506Z,55.56
2019-06-26T19:16:47.221Z,55.39
2019-06-26T19:19:16.512Z,54.85
2019-06-26T19:21:45.223Z,54.94
2019-06-26T19:24:14.222Z,55.25
2019-06-26T19:26:42.925Z,54.99
2019-06-26T19:29:13.367Z,54.88
2019-06-26T19:31:42.057Z,54.87
2019-06-26T19:34:10.909Z,54.78
2019-06-26T19:36:49.567Z,54.72
2019-06-26T19:39:10.516Z,54.99
2019-06-26T19:41:39.143Z,54.93
2019-06-26T19:44:09.154Z,55.44
2019-06-26T19:46:41.697Z,55.08
2019-06-26T19:49:09.031Z,55.15
2019-06-26T19:51:37.746Z,55.44
2019-06-26T19:54:06.943Z,56.22
2019-06-26T19:56:35.910Z,56.65
2019-06-26T19:59:05.579Z,56.88
2019-06-26T20:01:35.033Z,57.63
2019-06-26T20:04:04.017Z,57.94
2019-06-26T20:06:33.008Z,58.69
2019-06-26T20:09:01.757Z,58.98
2019-06-26T20:11:30.811Z,60.03
2019-06-26T20:13:59.547Z,60.71
2019-06-26T20:16:28.470Z,61.09
2019-06-26T20:18:57.547Z,61.20
2019-06-26T20:21:26.255Z,61.66
2019-06-26T20:23:54.940Z,61.94
2019-06-26T20:26:23.607Z,62.49
2019-06-26T20:28:52.305Z,62.74
2019-06-26T20:31:20.977Z,62.85
2019-06-26T20:33:50.031Z,62.93
2019-06-26T20:36:19.059Z,63.43
2019-06-26T20:38:47.777Z,63.26
2019-06-26T20:41:19.946Z,63.57
2019-06-26T20:43:49.335Z,63.58
2019-06-26T20:46:18.018Z,63.70
2019-06-26T20:48:46.716Z,63.79
2019-06-26T20:51:15.401Z,64.14
2019-06-26T20:53:44.428Z,64.20
2019-06-26T20:56:13.100Z,64.14
2019-06-26T20:58:41.810Z,64.17
2019-06-26T21:01:11.054Z,63.78
2019-06-26T21:03:39.737Z,63.55
2019-06-26T21:06:08.743Z,64.24
2019-06-26T21:08:37.504Z,63.73
2019-06-26T21:11:06.172Z,63.85
2019-06-26T21:13:34.927Z,63.81
2019-06-26T21:16:06.049Z,63.78
2019-06-26T21:18:34.777Z,63.95
2019-06-26T21:21:03.736Z,63.33
2019-06-26T21:23:32.662Z,63.46
2019-06-26T21:26:01.409Z,63.64
2019-06-26T21:28:30.922Z,63.98
2019-06-26T21:30:59.610Z,64.12
2019-06-26T21:33:28.684Z,65.03
2019-06-26T21:35:57.391Z,64.44
2019-06-26T21:38:26.354Z,64.65
2019-06-26T21:40:55.050Z,65.60
2019-06-26T21:43:24.155Z,65.21
2019-06-26T21:45:52.828Z,65.48
2019-06-26T21:48:21.636Z,65.72
2019-06-26T21:50:50.640Z,65.99
2019-06-26T21:53:19.314Z,66.21
2019-06-26T21:55:48.242Z,66.56
2019-06-26T21:58:17.037Z,67.61
2019-06-26T22:00:46.608Z,67.60
2019-06-26T22:03:16.527Z,68.13
2019-06-26T22:05:45.386Z,68.73
2019-06-26T22:08:14.099Z,68.96
2019-06-26T22:10:42.935Z,68.74
2019-06-26T22:13:11.706Z,68.75
2019-06-26T22:15:40.831Z,68.95
2019-06-26T22:18:09.581Z,68.87
2019-06-26T22:20:38.297Z,69.19
2019-06-26T22:23:07.104Z,69.16
2019-06-26T22:25:49.901Z,68.76
2019-06-26T22:28:06.568Z,68.71
2019-06-26T22:30:37.422Z,68.66
2019-06-26T22:33:07.391Z,68.19
2019-06-26T22:35:36.119Z,68.07
2019-06-26T22:38:04.887Z,67.72
2019-06-26T22:40:33.578Z,67.23
2019-06-26T22:43:04.246Z,68.04
2019-06-26T22:45:33.227Z,67.89
2019-06-26T22:48:02.034Z,68.36
2019-06-26T22:50:30.940Z,68.49
2019-06-26T22:52:59.973Z,69.01
2019-06-26T22:55:28.678Z,69.15
2019-06-26T22:57:57.352Z,69.58
2019-06-26T23:00:26.200Z,69.52
2019-06-26T23:02:54.934Z,69.42
2019-06-26T23:05:23.930Z,69.40
2019-06-26T23:07:52.604Z,69.95
2019-06-26T23:10:21.327Z,69.89
2019-06-26T23:12:50.357Z,69.83
2019-06-26T23:15:19.213Z,69.65
2019-06-26T23:17:48.274Z,69.62
2019-06-26T23:20:19.847Z,70.40
2019-06-26T23:22:48.861Z,70.81
2019-06-26T23:25:17.776Z,70.81
2019-06-26T23:27:46.450Z,71.08
2019-06-26T23:30:18.879Z,71.80
2019-06-26T23:32:48.212Z,72.27
2019-06-26T23:35:17.324Z,72.30
2019-06-26T23:37:46.008Z,72.51
2019-06-26T23:40:14.829Z,72.53
2019-06-26T23:42:43.748Z,73.11
2019-06-26T23:45:12.793Z,73.12
2019-06-26T23:47:41.974Z,73.28
2019-06-26T23:50:13.090Z,73.43
2019-06-26T23:52:41.776Z,72.97
2019-06-26T23:55:10.868Z,72.40
2019-06-26T23:57:54.650Z,72.35
